sensor_id;sensor_type;location;lat;lon;timestamp;P1;durP1;ratioP1;P2;durP2;ratioP2
62610;SDS011;48683;48.084;17.272;2023-06-22T00:00:48;11.95;;;5.43;;
62610;SDS011;48683;48.084;17.272;2023-06-22T00:03:14;9.93;;;5.18;;
62610;SDS011;48683;48.084;17.272;2023-06-22T00:05:39;13.57;;;5.50;;
62610;SDS011;48683;48.084;17.272;2023-06-22T00:08:04;10.60;;;5.07;;
62610;SDS011;48683;48.084;17.272;2023-06-22T00:10:30;14.00;;;5.63;;
62610;SDS011;48683;48.084;17.272;2023-06-22T00:12:56;12.63;;;5.00;;
62610;SDS011;48683;48.084;17.272;2023-06-22T00:15:21;12.27;;;6.10;;
62610;SDS011;48683;48.084;17.272;2023-06-22T00:17:46;9.33;;;5.77;;
62610;SDS011;48683;48.084;17.272;2023-06-22T00:20:12;12.53;;;5.50;;
62610;SDS011;48683;48.084;17.272;2023-06-22T00:22:39;11.77;;;5.63;;
62610;SDS011;48683;48.084;17.272;2023-06-22T00:25:06;13.50;;;6.37;;
62610;SDS011;48683;48.084;17.272;2023-06-22T00:27:32;10.95;;;5.97;;
62610;SDS011;48683;48.084;17.272;2023-06-22T00:29:57;15.43;;;6.10;;
62610;SDS011;48683;48.084;17.272;2023-06-22T00:32:22;20.73;;;6.40;;
62610;SDS011;48683;48.084;17.272;2023-06-22T00:34:47;10.97;;;5.73;;
62610;SDS011;48683;48.084;17.272;2023-06-22T00:37:13;11.73;;;6.03;;
62610;SDS011;48683;48.084;17.272;2023-06-22T00:39:38;12.40;;;6.17;;
62610;SDS011;48683;48.084;17.272;2023-06-22T00:42:04;14.07;;;5.43;;
62610;SDS011;48683;48.084;17.272;2023-06-22T00:44:29;13.82;;;5.80;;
62610;SDS011;48683;48.084;17.272;2023-06-22T00:46:55;9.00;;;5.73;;
62610;SDS011;48683;48.084;17.272;2023-06-22T00:49:20;12.10;;;5.80;;
62610;SDS011;48683;48.084;17.272;2023-06-22T00:51:46;9.50;;;5.47;;
62610;SDS011;48683;48.084;17.272;2023-06-22T00:56:39;14.32;;;5.60;;
62610;SDS011;48683;48.084;17.272;2023-06-22T00:59:05;11.27;;;5.65;;
62610;SDS011;48683;48.084;17.272;2023-06-22T01:01:31;16.10;;;6.30;;
62610;SDS011;48683;48.084;17.272;2023-06-22T01:03:57;17.67;;;6.17;;
62610;SDS011;48683;48.084;17.272;2023-06-22T01:06:26;12.93;;;6.55;;
62610;SDS011;48683;48.084;17.272;2023-06-22T01:09:06;9.50;;;5.55;;
62610;SDS011;48683;48.084;17.272;2023-06-22T01:11:45;14.30;;;6.22;;
62610;SDS011;48683;48.084;17.272;2023-06-22T01:14:16;8.55;;;5.93;;
62610;SDS011;48683;48.084;17.272;2023-06-22T01:16:49;12.57;;;5.15;;
62610;SDS011;48683;48.084;17.272;2023-06-22T01:19:34;7.50;;;4.30;;
62610;SDS011;48683;48.084;17.272;2023-06-22T01:22:03;13.73;;;6.13;;
62610;SDS011;48683;48.084;17.272;2023-06-22T01:27:15;15.32;;;5.82;;
62610;SDS011;48683;48.084;17.272;2023-06-22T01:29:51;17.27;;;6.32;;
62610;SDS011;48683;48.084;17.272;2023-06-22T01:32:26;13.23;;;7.10;;
62610;SDS011;48683;48.084;17.272;2023-06-22T01:34:55;11.63;;;5.90;;
62610;SDS011;48683;48.084;17.272;2023-06-22T01:37:22;12.73;;;5.38;;
62610;SDS011;48683;48.084;17.272;2023-06-22T01:39:48;15.50;;;6.63;;
62610;SDS011;48683;48.084;17.272;2023-06-22T01:42:13;11.77;;;6.93;;
62610;SDS011;48683;48.084;17.272;2023-06-22T01:44:39;14.43;;;6.70;;
62610;SDS011;48683;48.084;17.272;2023-06-22T01:47:05;9.30;;;6.50;;
62610;SDS011;48683;48.084;17.272;2023-06-22T01:49:32;11.00;;;5.10;;
62610;SDS011;48683;48.084;17.272;2023-06-22T01:51:57;10.73;;;6.03;;
62610;SDS011;48683;48.084;17.272;2023-06-22T01:54:23;16.97;;;7.50;;
62610;SDS011;48683;48.084;17.272;2023-06-22T01:56:48;10.27;;;6.60;;
62610;SDS011;48683;48.084;17.272;2023-06-22T01:59:20;14.10;;;6.13;;
62610;SDS011;48683;48.084;17.272;2023-06-22T02:02:02;12.90;;;6.18;;
62610;SDS011;48683;48.084;17.272;2023-06-22T02:04:37;12.45;;;6.57;;
62610;SDS011;48683;48.084;17.272;2023-06-22T02:07:08;15.65;;;7.05;;
62610;SDS011;48683;48.084;17.272;2023-06-22T02:09:37;16.92;;;7.05;;
62610;SDS011;48683;48.084;17.272;2023-06-22T02:12:05;10.05;;;5.78;;
62610;SDS011;48683;48.084;17.272;2023-06-22T02:14:33;10.25;;;5.55;;
62610;SDS011;48683;48.084;17.272;2023-06-22T02:17:00;13.35;;;7.32;;
62610;SDS011;48683;48.084;17.272;2023-06-22T02:19:26;16.70;;;7.40;;
62610;SDS011;48683;48.084;17.272;2023-06-22T02:21:52;14.05;;;7.50;;
62610;SDS011;48683;48.084;17.272;2023-06-22T02:24:17;15.97;;;7.53;;
62610;SDS011;48683;48.084;17.272;2023-06-22T02:26:43;17.90;;;7.70;;
62610;SDS011;48683;48.084;17.272;2023-06-22T02:29:10;13.32;;;7.15;;
62610;SDS011;48683;48.084;17.272;2023-06-22T02:31:35;11.80;;;6.30;;
62610;SDS011;48683;48.084;17.272;2023-06-22T02:34:01;10.97;;;6.03;;
62610;SDS011;48683;48.084;17.272;2023-06-22T02:36:26;13.10;;;6.77;;
62610;SDS011;48683;48.084;17.272;2023-06-22T02:38:52;13.70;;;6.43;;
62610;SDS011;48683;48.084;17.272;2023-06-22T02:41:19;13.00;;;6.80;;
62610;SDS011;48683;48.084;17.272;2023-06-22T02:43:45;10.83;;;5.43;;
62610;SDS011;48683;48.084;17.272;2023-06-22T02:46:11;10.98;;;6.13;;
62610;SDS011;48683;48.084;17.272;2023-06-22T02:48:37;10.63;;;6.28;;
62610;SDS011;48683;48.084;17.272;2023-06-22T02:51:03;14.57;;;5.53;;
62610;SDS011;48683;48.084;17.272;2023-06-22T02:53:29;8.20;;;5.17;;
62610;SDS011;48683;48.084;17.272;2023-06-22T02:55:55;11.53;;;6.23;;
62610;SDS011;48683;48.084;17.272;2023-06-22T02:58:20;11.35;;;6.10;;
62610;SDS011;48683;48.084;17.272;2023-06-22T03:00:46;10.67;;;5.97;;
62610;SDS011;48683;48.084;17.272;2023-06-22T03:03:11;14.00;;;6.37;;
62610;SDS011;48683;48.084;17.272;2023-06-22T03:05:37;11.30;;;5.10;;
62610;SDS011;48683;48.084;17.272;2023-06-22T03:08:02;12.13;;;6.90;;
62610;SDS011;48683;48.084;17.272;2023-06-22T03:10:27;13.20;;;5.47;;
62610;SDS011;48683;48.084;17.272;2023-06-22T03:12:53;18.87;;;7.03;;
62610;SDS011;48683;48.084;17.272;2023-06-22T03:17:45;12.03;;;7.40;;
62610;SDS011;48683;48.084;17.272;2023-06-22T03:20:11;9.95;;;7.10;;
62610;SDS011;48683;48.084;17.272;2023-06-22T03:22:40;16.07;;;7.67;;
62610;SDS011;48683;48.084;17.272;2023-06-22T03:25:07;18.05;;;8.35;;
62610;SDS011;48683;48.084;17.272;2023-06-22T03:27:37;17.42;;;9.35;;
62610;SDS011;48683;48.084;17.272;2023-06-22T03:30:03;17.27;;;9.80;;
62610;SDS011;48683;48.084;17.272;2023-06-22T03:32:29;17.60;;;8.52;;
62610;SDS011;48683;48.084;17.272;2023-06-22T03:34:55;20.60;;;7.63;;
62610;SDS011;48683;48.084;17.272;2023-06-22T03:37:23;13.95;;;9.20;;
62610;SDS011;48683;48.084;17.272;2023-06-22T03:39:52;19.05;;;7.13;;
62610;SDS011;48683;48.084;17.272;2023-06-22T03:42:17;15.73;;;7.20;;
62610;SDS011;48683;48.084;17.272;2023-06-22T03:44:43;12.87;;;7.83;;
62610;SDS011;48683;48.084;17.272;2023-06-22T03:47:09;25.67;;;9.57;;
62610;SDS011;48683;48.084;17.272;2023-06-22T03:49:34;14.63;;;7.37;;
62610;SDS011;48683;48.084;17.272;2023-06-22T03:52:00;22.63;;;10.13;;
62610;SDS011;48683;48.084;17.272;2023-06-22T03:54:27;24.30;;;7.70;;
62610;SDS011;48683;48.084;17.272;2023-06-22T03:56:53;10.32;;;6.88;;
62610;SDS011;48683;48.084;17.272;2023-06-22T03:59:19;17.57;;;7.10;;
62610;SDS011;48683;48.084;17.272;2023-06-22T04:01:44;16.83;;;8.53;;
62610;SDS011;48683;48.084;17.272;2023-06-22T04:04:10;16.73;;;9.13;;
62610;SDS011;48683;48.084;17.272;2023-06-22T04:06:35;19.33;;;9.37;;
62610;SDS011;48683;48.084;17.272;2023-06-22T04:09:00;16.07;;;8.80;;
62610;SDS011;48683;48.084;17.272;2023-06-22T04:11:26;16.97;;;10.13;;
62610;SDS011;48683;48.084;17.272;2023-06-22T04:13:51;14.00;;;8.30;;
62610;SDS011;48683;48.084;17.272;2023-06-22T04:16:17;17.93;;;10.17;;
62610;SDS011;48683;48.084;17.272;2023-06-22T04:18:42;16.57;;;10.03;;
62610;SDS011;48683;48.084;17.272;2023-06-22T04:21:07;18.13;;;8.13;;
62610;SDS011;48683;48.084;17.272;2023-06-22T04:23:32;18.73;;;8.63;;
62610;SDS011;48683;48.084;17.272;2023-06-22T04:25:58;15.37;;;9.80;;
62610;SDS011;48683;48.084;17.272;2023-06-22T04:28:24;18.58;;;8.65;;
62610;SDS011;48683;48.084;17.272;2023-06-22T04:30:49;15.93;;;9.57;;
62610;SDS011;48683;48.084;17.272;2023-06-22T04:33:16;19.43;;;10.10;;
62610;SDS011;48683;48.084;17.272;2023-06-22T04:35:44;12.85;;;9.10;;
62610;SDS011;48683;48.084;17.272;2023-06-22T04:38:11;17.48;;;10.15;;
62610;SDS011;48683;48.084;17.272;2023-06-22T04:40:38;15.75;;;8.60;;
62610;SDS011;48683;48.084;17.272;2023-06-22T04:43:04;18.55;;;9.30;;
62610;SDS011;48683;48.084;17.272;2023-06-22T04:45:31;14.32;;;8.32;;
62610;SDS011;48683;48.084;17.272;2023-06-22T04:48:02;16.65;;;9.20;;
62610;SDS011;48683;48.084;17.272;2023-06-22T04:50:28;12.27;;;7.60;;
62610;SDS011;48683;48.084;17.272;2023-06-22T04:52:53;15.13;;;7.87;;
62610;SDS011;48683;48.084;17.272;2023-06-22T04:55:19;18.47;;;8.30;;
62610;SDS011;48683;48.084;17.272;2023-06-22T04:57:48;13.75;;;8.07;;
62610;SDS011;48683;48.084;17.272;2023-06-22T05:00:17;12.25;;;6.88;;
62610;SDS011;48683;48.084;17.272;2023-06-22T05:02:47;9.32;;;6.20;;
62610;SDS011;48683;48.084;17.272;2023-06-22T05:05:14;10.70;;;6.07;;
62610;SDS011;48683;48.084;17.272;2023-06-22T05:07:41;12.23;;;6.40;;
62610;SDS011;48683;48.084;17.272;2023-06-22T05:10:08;13.50;;;6.22;;
62610;SDS011;48683;48.084;17.272;2023-06-22T05:12:35;12.43;;;6.25;;
62610;SDS011;48683;48.084;17.272;2023-06-22T05:15:01;15.13;;;6.77;;
62610;SDS011;48683;48.084;17.272;2023-06-22T05:17:26;13.43;;;6.53;;
62610;SDS011;48683;48.084;17.272;2023-06-22T05:19:52;14.63;;;7.60;;
62610;SDS011;48683;48.084;17.272;2023-06-22T05:22:18;12.18;;;7.05;;
62610;SDS011;48683;48.084;17.272;2023-06-22T05:24:44;15.20;;;7.70;;
62610;SDS011;48683;48.084;17.272;2023-06-22T05:27:09;16.03;;;6.93;;
62610;SDS011;48683;48.084;17.272;2023-06-22T05:29:36;15.07;;;6.33;;
62610;SDS011;48683;48.084;17.272;2023-06-22T05:32:02;12.52;;;6.10;;
62610;SDS011;48683;48.084;17.272;2023-06-22T05:34:28;14.95;;;6.30;;
62610;SDS011;48683;48.084;17.272;2023-06-22T05:36:53;15.07;;;6.03;;
62610;SDS011;48683;48.084;17.272;2023-06-22T05:39:18;14.03;;;6.43;;
62610;SDS011;48683;48.084;17.272;2023-06-22T05:41:45;13.80;;;6.50;;
62610;SDS011;48683;48.084;17.272;2023-06-22T05:44:10;16.08;;;6.28;;
62610;SDS011;48683;48.084;17.272;2023-06-22T05:46:36;16.03;;;6.70;;
62610;SDS011;48683;48.084;17.272;2023-06-22T05:49:02;16.55;;;7.35;;
62610;SDS011;48683;48.084;17.272;2023-06-22T05:51:27;13.33;;;6.10;;
62610;SDS011;48683;48.084;17.272;2023-06-22T05:53:52;13.43;;;6.10;;
62610;SDS011;48683;48.084;17.272;2023-06-22T05:56:18;12.07;;;6.13;;
62610;SDS011;48683;48.084;17.272;2023-06-22T05:58:43;15.30;;;6.00;;
62610;SDS011;48683;48.084;17.272;2023-06-22T06:01:09;11.83;;;6.30;;
62610;SDS011;48683;48.084;17.272;2023-06-22T06:03:34;16.83;;;6.30;;
62610;SDS011;48683;48.084;17.272;2023-06-22T06:06:05;18.08;;;6.10;;
62610;SDS011;48683;48.084;17.272;2023-06-22T06:08:31;10.60;;;6.20;;
62610;SDS011;48683;48.084;17.272;2023-06-22T06:10:56;12.70;;;6.53;;
62610;SDS011;48683;48.084;17.272;2023-06-22T06:13:22;14.10;;;5.10;;
62610;SDS011;48683;48.084;17.272;2023-06-22T06:15:48;16.23;;;6.20;;
62610;SDS011;48683;48.084;17.272;2023-06-22T06:18:13;11.37;;;5.60;;
62610;SDS011;48683;48.084;17.272;2023-06-22T06:20:38;12.13;;;5.63;;
62610;SDS011;48683;48.084;17.272;2023-06-22T06:23:03;16.67;;;5.63;;
62610;SDS011;48683;48.084;17.272;2023-06-22T06:25:29;11.03;;;5.50;;
62610;SDS011;48683;48.084;17.272;2023-06-22T06:27:54;13.03;;;5.50;;
62610;SDS011;48683;48.084;17.272;2023-06-22T06:30:20;15.87;;;5.20;;
62610;SDS011;48683;48.084;17.272;2023-06-22T06:32:46;14.70;;;5.55;;
62610;SDS011;48683;48.084;17.272;2023-06-22T06:35:12;9.47;;;4.63;;
62610;SDS011;48683;48.084;17.272;2023-06-22T06:37:40;11.85;;;4.53;;
62610;SDS011;48683;48.084;17.272;2023-06-22T06:40:07;12.77;;;5.15;;
62610;SDS011;48683;48.084;17.272;2023-06-22T06:42:45;15.68;;;5.80;;
62610;SDS011;48683;48.084;17.272;2023-06-22T06:45:12;13.18;;;4.85;;
62610;SDS011;48683;48.084;17.272;2023-06-22T06:47:40;13.07;;;5.68;;
62610;SDS011;48683;48.084;17.272;2023-06-22T06:50:06;9.30;;;4.63;;
62610;SDS011;48683;48.084;17.272;2023-06-22T06:52:32;10.68;;;5.00;;
62610;SDS011;48683;48.084;17.272;2023-06-22T06:54:57;13.50;;;5.03;;
62610;SDS011;48683;48.084;17.272;2023-06-22T06:57:23;15.67;;;5.30;;
62610;SDS011;48683;48.084;17.272;2023-06-22T06:59:48;11.87;;;4.80;;
62610;SDS011;48683;48.084;17.272;2023-06-22T07:02:15;8.18;;;4.20;;
62610;SDS011;48683;48.084;17.272;2023-06-22T07:04:41;12.98;;;4.47;;
62610;SDS011;48683;48.084;17.272;2023-06-22T07:07:06;9.10;;;4.67;;
62610;SDS011;48683;48.084;17.272;2023-06-22T07:09:32;11.80;;;4.77;;
62610;SDS011;48683;48.084;17.272;2023-06-22T07:11:57;14.83;;;4.70;;
62610;SDS011;48683;48.084;17.272;2023-06-22T07:14:22;12.77;;;4.30;;
62610;SDS011;48683;48.084;17.272;2023-06-22T07:16:48;10.70;;;4.17;;
62610;SDS011;48683;48.084;17.272;2023-06-22T07:19:13;8.97;;;4.50;;
62610;SDS011;48683;48.084;17.272;2023-06-22T07:21:38;7.93;;;4.30;;
62610;SDS011;48683;48.084;17.272;2023-06-22T07:24:06;11.48;;;4.72;;
62610;SDS011;48683;48.084;17.272;2023-06-22T07:26:32;6.63;;;4.10;;
62610;SDS011;48683;48.084;17.272;2023-06-22T07:28:57;13.93;;;4.70;;
62610;SDS011;48683;48.084;17.272;2023-06-22T07:31:24;12.27;;;4.40;;
62610;SDS011;48683;48.084;17.272;2023-06-22T07:33:49;7.80;;;4.25;;
62610;SDS011;48683;48.084;17.272;2023-06-22T07:36:16;10.87;;;4.43;;
62610;SDS011;48683;48.084;17.272;2023-06-22T07:38:42;13.88;;;5.00;;
62610;SDS011;48683;48.084;17.272;2023-06-22T07:41:07;9.57;;;4.63;;
62610;SDS011;48683;48.084;17.272;2023-06-22T07:43:32;10.17;;;4.50;;
62610;SDS011;48683;48.084;17.272;2023-06-22T07:46:02;13.10;;;4.53;;
62610;SDS011;48683;48.084;17.272;2023-06-22T07:53:20;11.80;;;4.63;;
62610;SDS011;48683;48.084;17.272;2023-06-22T07:55:45;9.98;;;4.45;;
62610;SDS011;48683;48.084;17.272;2023-06-22T07:58:11;8.07;;;4.30;;
62610;SDS011;48683;48.084;17.272;2023-06-22T08:00:36;10.87;;;4.30;;
62610;SDS011;48683;48.084;17.272;2023-06-22T08:03:02;11.00;;;4.87;;
62610;SDS011;48683;48.084;17.272;2023-06-22T08:05:28;12.23;;;4.65;;
62610;SDS011;48683;48.084;17.272;2023-06-22T08:07:54;10.60;;;4.32;;
62610;SDS011;48683;48.084;17.272;2023-06-22T08:10:20;13.20;;;4.97;;
62610;SDS011;48683;48.084;17.272;2023-06-22T08:12:46;9.25;;;3.55;;
62610;SDS011;48683;48.084;17.272;2023-06-22T08:15:11;12.27;;;4.47;;
62610;SDS011;48683;48.084;17.272;2023-06-22T08:17:37;7.20;;;4.30;;
62610;SDS011;48683;48.084;17.272;2023-06-22T08:22:34;9.93;;;4.07;;
62610;SDS011;48683;48.084;17.272;2023-06-22T08:25:01;11.32;;;3.67;;
62610;SDS011;48683;48.084;17.272;2023-06-22T08:27:26;10.27;;;3.50;;
62610;SDS011;48683;48.084;17.272;2023-06-22T08:29:53;9.85;;;4.40;;
62610;SDS011;48683;48.084;17.272;2023-06-22T08:32:23;7.78;;;4.40;;
62610;SDS011;48683;48.084;17.272;2023-06-22T08:34:48;7.37;;;3.90;;
62610;SDS011;48683;48.084;17.272;2023-06-22T08:37:13;12.63;;;4.50;;
62610;SDS011;48683;48.084;17.272;2023-06-22T08:39:39;11.53;;;4.20;;
62610;SDS011;48683;48.084;17.272;2023-06-22T08:42:05;9.35;;;3.95;;
62610;SDS011;48683;48.084;17.272;2023-06-22T08:44:30;9.55;;;3.97;;
62610;SDS011;48683;48.084;17.272;2023-06-22T08:46:57;7.80;;;4.13;;
62610;SDS011;48683;48.084;17.272;2023-06-22T08:49:22;15.75;;;4.47;;
62610;SDS011;48683;48.084;17.272;2023-06-22T08:51:47;11.53;;;4.17;;
62610;SDS011;48683;48.084;17.272;2023-06-22T08:54:14;11.75;;;4.28;;
62610;SDS011;48683;48.084;17.272;2023-06-22T08:56:39;10.70;;;4.30;;
62610;SDS011;48683;48.084;17.272;2023-06-22T08:59:05;12.93;;;4.20;;
62610;SDS011;48683;48.084;17.272;2023-06-22T09:01:32;10.02;;;4.03;;
62610;SDS011;48683;48.084;17.272;2023-06-22T09:03:58;10.67;;;3.87;;
62610;SDS011;48683;48.084;17.272;2023-06-22T09:06:24;10.93;;;3.80;;
62610;SDS011;48683;48.084;17.272;2023-06-22T09:08:50;9.80;;;3.90;;
62610;SDS011;48683;48.084;17.272;2023-06-22T09:11:15;11.10;;;3.50;;
62610;SDS011;48683;48.084;17.272;2023-06-22T09:13:41;8.68;;;3.65;;
62610;SDS011;48683;48.084;17.272;2023-06-22T09:16:06;9.00;;;3.80;;
62610;SDS011;48683;48.084;17.272;2023-06-22T09:18:33;9.43;;;3.67;;
62610;SDS011;48683;48.084;17.272;2023-06-22T09:20:59;8.20;;;3.67;;
62610;SDS011;48683;48.084;17.272;2023-06-22T09:23:24;11.17;;;4.00;;
62610;SDS011;48683;48.084;17.272;2023-06-22T09:25:50;8.27;;;3.50;;
62610;SDS011;48683;48.084;17.272;2023-06-22T09:28:15;9.90;;;3.90;;
62610;SDS011;48683;48.084;17.272;2023-06-22T09:30:42;13.77;;;3.60;;
62610;SDS011;48683;48.084;17.272;2023-06-22T09:33:08;12.95;;;5.03;;
62610;SDS011;48683;48.084;17.272;2023-06-22T09:35:33;9.17;;;3.57;;
62610;SDS011;48683;48.084;17.272;2023-06-22T09:37:59;9.45;;;3.88;;
62610;SDS011;48683;48.084;17.272;2023-06-22T09:40:24;9.33;;;3.97;;
62610;SDS011;48683;48.084;17.272;2023-06-22T09:42:50;7.23;;;3.37;;
62610;SDS011;48683;48.084;17.272;2023-06-22T09:45:15;8.07;;;3.63;;
62610;SDS011;48683;48.084;17.272;2023-06-22T09:47:40;12.05;;;4.38;;
62610;SDS011;48683;48.084;17.272;2023-06-22T09:50:07;8.45;;;3.65;;
62610;SDS011;48683;48.084;17.272;2023-06-22T09:52:33;10.77;;;3.92;;
62610;SDS011;48683;48.084;17.272;2023-06-22T09:54:58;6.33;;;3.27;;
62610;SDS011;48683;48.084;17.272;2023-06-22T09:57:24;10.47;;;3.77;;
62610;SDS011;48683;48.084;17.272;2023-06-22T09:59:49;9.03;;;3.63;;
62610;SDS011;48683;48.084;17.272;2023-06-22T10:02:14;10.40;;;4.13;;
62610;SDS011;48683;48.084;17.272;2023-06-22T10:04:40;7.43;;;3.67;;
62610;SDS011;48683;48.084;17.272;2023-06-22T10:07:05;5.80;;;3.40;;
62610;SDS011;48683;48.084;17.272;2023-06-22T10:09:31;9.30;;;4.05;;
62610;SDS011;48683;48.084;17.272;2023-06-22T10:11:56;7.00;;;3.27;;
62610;SDS011;48683;48.084;17.272;2023-06-22T10:14:21;8.77;;;3.77;;
62610;SDS011;48683;48.084;17.272;2023-06-22T10:16:48;7.00;;;3.37;;
62610;SDS011;48683;48.084;17.272;2023-06-22T10:19:13;8.68;;;3.60;;
62610;SDS011;48683;48.084;17.272;2023-06-22T10:21:39;9.37;;;3.47;;
62610;SDS011;48683;48.084;17.272;2023-06-22T10:24:04;6.83;;;3.40;;
62610;SDS011;48683;48.084;17.272;2023-06-22T10:26:33;8.25;;;3.50;;
62610;SDS011;48683;48.084;17.272;2023-06-22T10:28:59;8.93;;;3.30;;
62610;SDS011;48683;48.084;17.272;2023-06-22T10:31:26;6.10;;;3.25;;
62610;SDS011;48683;48.084;17.272;2023-06-22T10:33:52;8.07;;;3.63;;
62610;SDS011;48683;48.084;17.272;2023-06-22T10:36:18;7.57;;;3.42;;
62610;SDS011;48683;48.084;17.272;2023-06-22T10:38:44;11.27;;;3.07;;
62610;SDS011;48683;48.084;17.272;2023-06-22T10:41:09;9.90;;;3.80;;
62610;SDS011;48683;48.084;17.272;2023-06-22T10:43:34;12.67;;;3.73;;
62610;SDS011;48683;48.084;17.272;2023-06-22T10:45:59;10.20;;;4.10;;
62610;SDS011;48683;48.084;17.272;2023-06-22T10:48:25;7.33;;;3.57;;
62610;SDS011;48683;48.084;17.272;2023-06-22T10:50:50;8.57;;;3.60;;
62610;SDS011;48683;48.084;17.272;2023-06-22T10:53:16;9.40;;;4.03;;
62610;SDS011;48683;48.084;17.272;2023-06-22T10:55:41;7.53;;;3.63;;
62610;SDS011;48683;48.084;17.272;2023-06-22T10:58:06;8.33;;;3.57;;
62610;SDS011;48683;48.084;17.272;2023-06-22T11:00:31;8.07;;;3.53;;
62610;SDS011;48683;48.084;17.272;2023-06-22T11:02:57;9.17;;;4.00;;
62610;SDS011;48683;48.084;17.272;2023-06-22T11:07:48;6.20;;;3.67;;
62610;SDS011;48683;48.084;17.272;2023-06-22T11:12:39;9.13;;;4.23;;
62610;SDS011;48683;48.084;17.272;2023-06-22T11:15:05;10.82;;;4.30;;
62610;SDS011;48683;48.084;17.272;2023-06-22T11:17:31;13.27;;;3.83;;
62610;SDS011;48683;48.084;17.272;2023-06-22T11:19:56;8.23;;;4.20;;
62610;SDS011;48683;48.084;17.272;2023-06-22T11:22:21;9.87;;;3.90;;
62610;SDS011;48683;48.084;17.272;2023-06-22T11:27:12;9.30;;;4.10;;
62610;SDS011;48683;48.084;17.272;2023-06-22T11:29:38;15.77;;;4.30;;
62610;SDS011;48683;48.084;17.272;2023-06-22T11:32:05;12.45;;;4.43;;
62610;SDS011;48683;48.084;17.272;2023-06-22T11:34:32;11.93;;;4.13;;
62610;SDS011;48683;48.084;17.272;2023-06-22T11:39:22;10.60;;;4.60;;
62610;SDS011;48683;48.084;17.272;2023-06-22T11:44:13;9.02;;;4.65;;
62610;SDS011;48683;48.084;17.272;2023-06-22T11:46:38;9.30;;;4.60;;
62610;SDS011;48683;48.084;17.272;2023-06-22T11:51:29;14.13;;;4.03;;
62610;SDS011;48683;48.084;17.272;2023-06-22T11:53:56;14.20;;;4.80;;
62610;SDS011;48683;48.084;17.272;2023-06-22T11:58:47;8.87;;;4.30;;
62610;SDS011;48683;48.084;17.272;2023-06-22T12:03:40;8.38;;;4.63;;
62610;SDS011;48683;48.084;17.272;2023-06-22T12:08:30;8.97;;;4.10;;
62610;SDS011;48683;48.084;17.272;2023-06-22T12:13:21;8.27;;;4.60;;
62610;SDS011;48683;48.084;17.272;2023-06-22T12:20:39;21.08;;;5.22;;
62610;SDS011;48683;48.084;17.272;2023-06-22T12:25:30;9.17;;;4.80;;
62610;SDS011;48683;48.084;17.272;2023-06-22T12:30:20;12.10;;;4.83;;
62610;SDS011;48683;48.084;17.272;2023-06-22T12:35:11;10.47;;;4.50;;
62610;SDS011;48683;48.084;17.272;2023-06-22T12:37:40;10.57;;;4.47;;
62610;SDS011;48683;48.084;17.272;2023-06-22T12:40:06;8.57;;;4.20;;
62610;SDS011;48683;48.084;17.272;2023-06-22T12:44:57;8.67;;;4.47;;
62610;SDS011;48683;48.084;17.272;2023-06-22T12:49:47;11.00;;;4.70;;
62610;SDS011;48683;48.084;17.272;2023-06-22T12:54:38;8.17;;;4.30;;
62610;SDS011;48683;48.084;17.272;2023-06-22T12:59:29;14.37;;;4.43;;
62610;SDS011;48683;48.084;17.272;2023-06-22T13:04:20;7.47;;;4.63;;
62610;SDS011;48683;48.084;17.272;2023-06-22T13:06:46;10.10;;;4.43;;
62610;SDS011;48683;48.084;17.272;2023-06-22T13:09:13;7.75;;;4.00;;
62610;SDS011;48683;48.084;17.272;2023-06-22T13:11:39;8.88;;;4.22;;
62610;SDS011;48683;48.084;17.272;2023-06-22T13:16:29;9.83;;;4.37;;
62610;SDS011;48683;48.084;17.272;2023-06-22T13:21:20;9.03;;;4.47;;
62610;SDS011;48683;48.084;17.272;2023-06-22T13:26:10;7.67;;;4.10;;
62610;SDS011;48683;48.084;17.272;2023-06-22T13:31:01;8.93;;;4.57;;
62610;SDS011;48683;48.084;17.272;2023-06-22T13:35:52;11.20;;;4.83;;
62610;SDS011;48683;48.084;17.272;2023-06-22T13:40:42;7.90;;;4.40;;
62610;SDS011;48683;48.084;17.272;2023-06-22T13:45:33;9.50;;;4.10;;
62610;SDS011;48683;48.084;17.272;2023-06-22T13:50:24;7.97;;;4.50;;
62610;SDS011;48683;48.084;17.272;2023-06-22T13:55:14;10.80;;;4.50;;
62610;SDS011;48683;48.084;17.272;2023-06-22T14:00:05;14.13;;;4.77;;
62610;SDS011;48683;48.084;17.272;2023-06-22T14:02:33;13.63;;;4.85;;
62610;SDS011;48683;48.084;17.272;2023-06-22T14:09:49;10.63;;;4.60;;
62610;SDS011;48683;48.084;17.272;2023-06-22T14:14:40;11.65;;;4.90;;
62610;SDS011;48683;48.084;17.272;2023-06-22T14:19:31;11.03;;;4.83;;
62610;SDS011;48683;48.084;17.272;2023-06-22T14:24:22;11.13;;;5.07;;
62610;SDS011;48683;48.084;17.272;2023-06-22T14:29:13;11.83;;;5.43;;
62610;SDS011;48683;48.084;17.272;2023-06-22T14:34:03;9.00;;;4.80;;
62610;SDS011;48683;48.084;17.272;2023-06-22T14:36:30;13.07;;;5.20;;
62610;SDS011;48683;48.084;17.272;2023-06-22T14:41:21;10.83;;;4.70;;
62610;SDS011;48683;48.084;17.272;2023-06-22T14:43:47;8.90;;;4.78;;
62610;SDS011;48683;48.084;17.272;2023-06-22T14:46:13;11.07;;;5.60;;
62610;SDS011;48683;48.084;17.272;2023-06-22T14:48:39;15.30;;;5.20;;
62610;SDS011;48683;48.084;17.272;2023-06-22T14:51:06;9.77;;;5.25;;
62610;SDS011;48683;48.084;17.272;2023-06-22T14:55:56;13.07;;;4.97;;
62610;SDS011;48683;48.084;17.272;2023-06-22T15:00:47;10.37;;;5.20;;
62610;SDS011;48683;48.084;17.272;2023-06-22T15:05:42;12.07;;;5.43;;
62610;SDS011;48683;48.084;17.272;2023-06-22T15:08:08;8.38;;;5.28;;
62610;SDS011;48683;48.084;17.272;2023-06-22T15:12:59;10.20;;;5.07;;
62610;SDS011;48683;48.084;17.272;2023-06-22T15:17:49;10.70;;;5.83;;
62610;SDS011;48683;48.084;17.272;2023-06-22T15:22:40;17.40;;;5.73;;
62610;SDS011;48683;48.084;17.272;2023-06-22T15:27:30;10.27;;;5.83;;
62610;SDS011;48683;48.084;17.272;2023-06-22T15:32:21;13.63;;;5.83;;
62610;SDS011;48683;48.084;17.272;2023-06-22T15:37:15;10.63;;;6.10;;
62610;SDS011;48683;48.084;17.272;2023-06-22T15:39:41;10.70;;;6.15;;
62610;SDS011;48683;48.084;17.272;2023-06-22T15:44:32;13.00;;;6.13;;
62610;SDS011;48683;48.084;17.272;2023-06-22T15:49:23;11.50;;;6.67;;
62610;SDS011;48683;48.084;17.272;2023-06-22T15:54:13;11.23;;;6.37;;
62610;SDS011;48683;48.084;17.272;2023-06-22T15:59:04;10.43;;;6.00;;
62610;SDS011;48683;48.084;17.272;2023-06-22T16:03:54;15.50;;;6.13;;
62610;SDS011;48683;48.084;17.272;2023-06-22T16:06:20;15.57;;;6.13;;
62610;SDS011;48683;48.084;17.272;2023-06-22T16:11:11;10.67;;;5.73;;
62610;SDS011;48683;48.084;17.272;2023-06-22T16:16:02;12.40;;;6.13;;
62610;SDS011;48683;48.084;17.272;2023-06-22T16:20:53;12.32;;;6.90;;
62610;SDS011;48683;48.084;17.272;2023-06-22T16:25:44;16.90;;;6.40;;
62610;SDS011;48683;48.084;17.272;2023-06-22T16:30:34;11.33;;;6.07;;
62610;SDS011;48683;48.084;17.272;2023-06-22T16:33:00;11.20;;;6.63;;
62610;SDS011;48683;48.084;17.272;2023-06-22T16:35:26;11.98;;;6.38;;
62610;SDS011;48683;48.084;17.272;2023-06-22T16:37:53;17.05;;;7.03;;
62610;SDS011;48683;48.084;17.272;2023-06-22T16:40:19;13.18;;;6.47;;
62610;SDS011;48683;48.084;17.272;2023-06-22T16:45:14;10.57;;;6.47;;
62610;SDS011;48683;48.084;17.272;2023-06-22T16:47:44;13.90;;;7.03;;
62610;SDS011;48683;48.084;17.272;2023-06-22T16:50:11;17.02;;;6.68;;
62610;SDS011;48683;48.084;17.272;2023-06-22T16:52:36;13.70;;;6.47;;
62610;SDS011;48683;48.084;17.272;2023-06-22T16:57:28;8.00;;;5.70;;